Time;durP1;ratioP1;P1;durP2;ratioP2;P2;SDS_P1;SDS_P2;PMS_P1;PMS_P2;Temp;Humidity;BMP_temperature;BMP_pressure;BME280_temperature;BME280_humidity;BME280_pressure;Samples;Min_cycle;Max_cycle;Signal;HPM_P1;HPM_P2
2020/12/29 00:01:51;;;;;;;4.22;2.17;;;333.30;1228.80;;;;;;5054843;28;20040;-74
2020/12/29 00:04:25;;;;;;;4.35;2.28;;;333.30;1254.40;;;;;;5055100;28;20086;-75
2020/12/29 00:06:53;;;;;;;4.32;1.67;;;333.30;1228.80;;;;;;5054688;28;20470;-74
2020/12/29 00:09:20;;;;;;;4.15;2.13;;;333.50;1203.20;;;;;;5054567;28;20048;-74
2020/12/29 00:11:47;;;;;;;4.63;1.92;;;333.40;1228.80;;;;;;5054473;28;20021;-75
2020/12/29 00:14:14;;;;;;;8.65;1.85;;;333.30;1254.40;;;;;;5054465;28;20029;-74
2020/12/29 00:16:40;;;;;;;3.88;1.50;;;333.30;1228.80;;;;;;5054474;28;20525;-74
2020/12/29 00:19:10;;;;;;;3.40;2.05;;;333.40;1228.80;;;;;;5054368;28;20102;-75
2020/12/29 00:21:36;;;;;;;3.13;1.75;;;333.40;1228.80;;;;;;5053178;28;20040;-75
2020/12/29 00:24:02;;;;;;;2.53;1.20;;;333.60;1228.80;;;;;;5054211;28;20509;-74
2020/12/29 00:26:28;;;;;;;4.43;1.63;;;333.60;1254.40;;;;;;5054250;28;20533;-74
2020/12/29 00:28:53;;;;;;;3.25;1.33;;;333.60;1254.40;;;;;;5054513;28;20041;-75
2020/12/29 00:31:21;;;;;;;3.15;1.52;;;333.50;1280.00;;;;;;5054235;28;20462;-74
2020/12/29 00:33:48;;;;;;;4.57;1.83;;;333.50;1280.00;;;;;;5054098;28;20531;-74
2020/12/29 00:36:15;;;;;;;2.80;1.40;;;333.40;1280.00;;;;;;5052645;28;20363;-74
2020/12/29 00:38:41;;;;;;;2.55;1.27;;;333.40;1280.00;;;;;;5054227;28;20025;-74
2020/12/29 00:41:11;;;;;;;6.80;2.03;;;333.40;1280.00;;;;;;5053950;28;20044;-73
2020/12/29 00:43:37;;;;;;;2.60;1.20;;;333.50;1280.00;;;;;;5052459;28;20456;-73
2020/12/29 00:46:05;;;;;;;3.83;1.88;;;333.50;1280.00;;;;;;5053393;28;20035;-73
2020/12/29 00:48:31;;;;;;;4.70;1.33;;;333.60;1280.00;;;;;;5053936;28;20033;-73
2020/12/29 00:51:02;;;;;;;3.47;1.77;;;333.50;1280.00;;;;;;5053583;28;20029;-74
2020/12/29 00:53:28;;;;;;;3.70;1.63;;;333.50;1280.00;;;;;;5053798;28;20035;-74
2020/12/29 00:55:54;;;;;;;2.45;1.45;;;333.50;1280.00;;;;;;5053833;28;20095;-75
2020/12/29 00:58:20;;;;;;;3.80;1.65;;;333.60;1305.60;;;;;;5053579;28;20071;-74
2020/12/29 01:00:45;;;;;;;2.35;0.85;;;333.50;1305.60;;;;;;5053453;28;20390;-73
2020/12/29 01:03:11;;;;;;;2.55;1.33;;;333.50;1305.60;;;;;;5053528;28;20474;-74
2020/12/29 01:05:37;;;;;;;3.97;1.58;;;333.40;1331.20;;;;;;5053385;28;20398;-74
2020/12/29 01:08:02;;;;;;;2.33;1.00;;;333.40;1331.20;;;;;;5053815;28;20020;-75
2020/12/29 01:10:28;;;;;;;0.88;0.80;;;333.40;1331.20;;;;;;5053343;28;20032;-74
2020/12/29 01:12:54;;;;;;;2.80;1.92;;;333.40;1331.20;;;;;;5053402;28;20398;-74
2020/12/29 01:15:20;;;;;;;2.58;1.30;;;333.50;1331.20;;;;;;5053379;28;20053;-74
2020/12/29 01:17:45;;;;;;;3.35;1.63;;;333.50;1331.20;;;;;;5053270;28;20056;-74
2020/12/29 01:20:11;;;;;;;2.28;1.25;;;333.40;1356.80;;;;;;5053264;28;20025;-74
2020/12/29 01:22:37;;;;;;;3.97;1.80;;;333.40;1356.80;;;;;;5053318;28;20055;-75
2020/12/29 01:25:03;;;;;;;3.53;1.80;;;333.30;1382.40;;;;;;5053330;28;20037;-74
2020/12/29 01:27:29;;;;;;;2.92;1.20;;;333.30;1382.40;;;;;;5053329;28;20048;-75
2020/12/29 01:29:54;;;;;;;3.35;0.98;;;333.30;1408.00;;;;;;5052160;28;20041;-75
2020/12/29 01:32:20;;;;;;;1.45;0.93;;;333.30;1433.60;;;;;;5053086;28;20017;-75
2020/12/29 01:34:46;;;;;;;6.03;2.00;;;333.20;1484.80;;;;;;5053397;28;20028;-75
2020/12/29 01:37:12;;;;;;;3.15;1.60;;;333.20;1510.40;;;;;;5053210;28;20021;-74
2020/12/29 01:39:37;;;;;;;6.28;1.33;;;333.10;1536.00;;;;;;5052293;28;20562;-74
2020/12/29 01:42:03;;;;;;;6.53;1.67;;;333.00;1561.60;;;;;;5053098;28;20021;-74
2020/12/29 01:44:29;;;;;;;3.10;1.23;;;332.90;1587.20;;;;;;5053001;28;20108;-75
2020/12/29 01:46:55;;;;;;;8.70;2.53;;;332.90;1612.80;;;;;;5052938;28;20048;-75
2020/12/29 01:49:20;;;;;;;9.23;4.35;;;332.80;1664.00;;;;;;5053265;28;20028;-75
2020/12/29 01:51:46;;;;;;;9.45;5.40;;;332.80;1689.60;;;;;;5053179;28;20031;-74
2020/12/29 01:54:12;;;;;;;7.88;3.65;;;308.10;1715.20;;;;;;5052921;28;20035;-73
2020/12/29 01:56:39;;;;;;;13.45;3.53;;;308.00;1740.80;;;;;;5055773;28;20029;-74
2020/12/29 01:59:09;;;;;;;6.75;4.55;;;307.90;1740.80;;;;;;5056822;28;20039;-74
2020/12/29 02:01:43;;;;;;;10.25;4.63;;;307.70;1792.00;;;;;;5056775;28;20040;-74
2020/12/29 02:04:10;;;;;;;8.20;3.92;;;307.60;1817.60;;;;;;5057077;28;20037;-75
2020/12/29 02:06:37;;;;;;;8.75;3.80;;;307.50;1843.20;;;;;;5057037;28;20056;-75
2020/12/29 02:09:07;;;;;;;5.05;2.20;;;307.40;1843.20;;;;;;5056995;28;20033;-73
2020/12/29 02:11:34;;;;;;;3.58;2.00;;;307.40;1843.20;;;;;;5056873;28;20043;-74
2020/12/29 02:14:01;;;;;;;8.38;2.42;;;307.40;1843.20;;;;;;5056487;28;20021;-74
2020/12/29 02:16:27;;;;;;;5.32;1.73;;;307.30;1868.80;;;;;;5056672;28;20094;-74
2020/12/29 02:18:53;;;;;;;3.38;1.17;;;307.20;1868.80;;;;;;5056722;28;20052;-75
2020/12/29 02:21:19;;;;;;;8.05;1.85;;;282.40;1894.40;;;;;;5056377;28;20535;-74
2020/12/29 02:23:44;;;;;;;3.70;2.03;;;282.00;2073.60;;;;;;5056401;28;20041;-73
2020/12/29 02:26:10;;;;;;;9.35;1.98;;;281.60;2124.80;;;;;;5056564;28;20094;-74
2020/12/29 02:28:36;;;;;;;3.22;1.98;;;256.60;2227.20;;;;;;5056213;28;20171;-72
2020/12/29 02:31:02;;;;;;;5.45;2.10;;;256.20;2252.80;;;;;;5056332;28;20021;-74
2020/12/29 02:33:28;;;;;;;4.82;1.55;;;256.00;2252.80;;;;;;5056513;28;20025;-75
2020/12/29 02:35:53;;;;;;;1.27;0.95;;;231.20;2252.80;;;;;;5056370;28;20106;-73
2020/12/29 02:38:23;;;;;;;2.90;1.33;;;231.10;2252.80;;;;;;5056662;28;20159;-74
2020/12/29 02:40:50;;;;;;;3.85;1.33;;;231.10;2252.80;;;;;;5056215;28;20031;-73
2020/12/29 02:43:16;;;;;;;2.90;1.42;;;231.20;2252.80;;;;;;5056046;28;20044;-73
2020/12/29 02:45:42;;;;;;;4.20;1.33;;;231.10;2252.80;;;;;;5055883;28;20473;-74
2020/12/29 02:48:08;;;;;;;1.25;0.88;;;231.10;2227.20;;;;;;5056206;28;20223;-74
2020/12/29 02:50:34;;;;;;;1.65;0.55;;;231.20;2252.80;;;;;;5054999;28;20084;-74
2020/12/29 02:53:00;;;;;;;2.35;1.45;;;231.20;2150.40;;;;;;5056013;28;20052;-74
2020/12/29 02:55:26;;;;;;;2.20;1.27;;;231.30;2176.00;;;;;;5056206;28;20508;-75
2020/12/29 02:57:53;;;;;;;1.95;0.80;;;231.30;2099.20;;;;;;5055957;28;20025;-74
2020/12/29 03:00:19;;;;;;;2.17;0.90;;;256.00;2073.60;;;;;;5055826;28;20086;-74
2020/12/29 03:02:45;;;;;;;2.58;1.33;;;256.00;2124.80;;;;;;5055751;28;20099;-74
2020/12/29 03:05:10;;;;;;;1.58;1.08;;;256.10;2048.00;;;;;;5056162;28;20439;-74
2020/12/29 03:07:36;;;;;;;2.00;1.00;;;256.20;2022.40;;;;;;5054911;28;20017;-74
2020/12/29 03:10:08;;;;;;;3.50;1.90;;;256.20;2022.40;;;;;;5055723;28;20025;-74
2020/12/29 03:12:39;;;;;;;3.17;1.30;;;256.30;2048.00;;;;;;5055663;28;20021;-74
2020/12/29 03:15:06;;;;;;;3.22;1.48;;;256.30;2022.40;;;;;;5055447;28;20405;-75
2020/12/29 03:17:34;;;;;;;2.60;1.17;;;256.40;2048.00;;;;;;5055550;28;20028;-74
2020/12/29 03:20:04;;;;;;;3.78;2.38;;;256.40;1920.00;;;;;;5055725;28;20024;-74
2020/12/29 03:22:29;;;;;;;2.33;1.10;;;256.40;1945.60;;;;;;5055401;28;20028;-75
2020/12/29 03:24:55;;;;;;;3.20;1.00;;;256.50;1945.60;;;;;;5055151;28;20033;-76
2020/12/29 03:27:21;;;;;;;3.05;1.25;;;256.50;1894.40;;;;;;5055364;28;20025;-74
2020/12/29 03:29:47;;;;;;;4.18;1.50;;;256.50;1920.00;;;;;;5055254;28;20033;-75
2020/12/29 03:32:12;;;;;;;4.05;1.92;;;256.50;1894.40;;;;;;5055385;28;20092;-75
2020/12/29 03:34:38;;;;;;;2.60;1.52;;;256.50;1868.80;;;;;;5055273;28;20021;-74
2020/12/29 03:37:06;;;;;;;1.58;1.00;;;256.50;1868.80;;;;;;5055258;28;20017;-75
2020/12/29 03:39:32;;;;;;;2.17;1.25;;;256.50;1817.60;;;;;;5055216;28;20466;-74
2020/12/29 03:41:57;;;;;;;1.42;0.88;;;256.50;1843.20;;;;;;5053810;28;20037;-74
2020/12/29 03:44:23;;;;;;;1.13;0.73;;;256.50;1792.00;;;;;;5054887;28;20048;-74
2020/12/29 03:46:49;;;;;;;1.55;1.00;;;256.60;1792.00;;;;;;5055010;28;20053;-75
2020/12/29 03:49:15;;;;;;;1.80;0.85;;;256.60;1766.40;;;;;;5055361;28;20086;-74
2020/12/29 03:51:41;;;;;;;4.35;1.40;;;256.60;1766.40;;;;;;5054986;28;20021;-74
2020/12/29 03:54:07;;;;;;;1.60;0.77;;;256.60;1792.00;;;;;;5054876;28;20117;-74
2020/12/29 03:56:32;;;;;;;2.22;1.08;;;256.60;1740.80;;;;;;5054830;28;20428;-74
2020/12/29 03:58:58;;;;;;;1.85;1.40;;;256.60;1766.40;;;;;;5054719;28;20103;-73
2020/12/29 04:01:24;;;;;;;1.33;1.10;;;256.60;1766.40;;;;;;5054791;28;20092;-74
2020/12/29 04:03:50;;;;;;;3.35;1.98;;;256.60;1766.40;;;;;;5054900;28;20037;-74
2020/12/29 04:06:15;;;;;;;3.08;1.70;;;256.60;1792.00;;;;;;5054637;28;20104;-74
2020/12/29 04:08:41;;;;;;;8.63;5.45;;;256.60;1817.60;;;;;;5054882;28;20078;-74
2020/12/29 04:11:07;;;;;;;4.35;2.45;;;256.40;1843.20;;;;;;5054558;28;20514;-74
2020/12/29 04:13:34;;;;;;;4.55;2.88;;;256.50;1843.20;;;;;;5054497;28;20040;-75
2020/12/29 04:15:59;;;;;;;5.65;3.58;;;256.40;1843.20;;;;;;5054395;28;20017;-74
2020/12/29 04:18:25;;;;;;;11.85;7.53;;;256.40;1868.80;;;;;;5054374;28;20051;-73
2020/12/29 04:20:51;;;;;;;11.40;7.15;;;256.30;1868.80;;;;;;5054307;28;20114;-75
2020/12/29 04:23:17;;;;;;;9.90;5.80;;;256.30;1868.80;;;;;;5054141;28;20537;-75
2020/12/29 04:25:42;;;;;;;7.43;6.13;;;256.40;1868.80;;;;;;5054277;28;20071;-74
2020/12/29 04:28:08;;;;;;;5.90;4.03;;;256.50;1868.80;;;;;;5054244;28;20071;-74
2020/12/29 04:30:34;;;;;;;6.18;2.78;;;256.60;1894.40;;;;;;5054051;28;20214;-74
2020/12/29 04:32:59;;;;;;;3.55;2.75;;;256.60;1868.80;;;;;;5053703;28;20051;-76
2020/12/29 04:35:25;;;;;;;3.83;2.75;;;256.70;1868.80;;;;;;5054172;28;20025;-73
2020/12/29 04:37:51;;;;;;;11.45;7.03;;;256.60;1868.80;;;;;;5054071;28;20095;-75
2020/12/29 04:40:17;;;;;;;25.38;17.48;;;256.60;1868.80;;;;;;5054040;28;20392;-73
2020/12/29 04:42:43;;;;;;;19.00;12.02;;;256.60;1868.80;;;;;;5054211;28;20477;-73
2020/12/29 04:45:09;;;;;;;10.95;8.63;;;256.60;1868.80;;;;;;5053740;28;20078;-73
2020/12/29 04:47:36;;;;;;;13.55;11.15;;;256.60;1894.40;;;;;;5053969;28;20049;-73
2020/12/29 04:50:03;;;;;;;17.58;12.05;;;256.60;1894.40;;;;;;5053816;28;20515;-73
2020/12/29 04:52:30;;;;;;;28.73;17.30;;;256.60;1868.80;;;;;;5053943;28;20013;-75
2020/12/29 04:54:56;;;;;;;20.30;13.65;;;256.60;1868.80;;;;;;5053760;28;20029;-74
2020/12/29 04:57:23;;;;;;;16.55;10.85;;;256.60;1868.80;;;;;;5053881;28;20154;-74
2020/12/29 04:59:50;;;;;;;17.27;10.27;;;256.50;1868.80;;;;;;5053525;28;20029;-75
2020/12/29 05:02:16;;;;;;;16.55;10.85;;;256.50;1868.80;;;;;;5053315;28;20052;-74
2020/12/29 05:04:42;;;;;;;33.38;22.92;;;256.40;1868.80;;;;;;5053377;28;20481;-74
2020/12/29 05:07:08;;;;;;;32.83;22.48;;;256.40;1868.80;;;;;;5053539;28;20036;-74
2020/12/29 05:09:34;;;;;;;38.83;26.48;;;256.30;1868.80;;;;;;5053601;28;20025;-74
2020/12/29 05:12:00;;;;;;;27.63;18.10;;;256.20;1868.80;;;;;;5053504;28;20067;-74
2020/12/29 05:14:28;;;;;;;33.25;18.90;;;256.10;1868.80;;;;;;5053410;28;20394;-74
2020/12/29 05:16:57;;;;;;;22.35;13.80;;;256.10;1894.40;;;;;;5051946;28;20032;-74
2020/12/29 05:19:24;;;;;;;24.42;15.50;;;256.00;1868.80;;;;;;5053377;28;20028;-74
2020/12/29 05:21:50;;;;;;;30.92;21.30;;;256.00;1894.40;;;;;;5053504;28;20024;-75
2020/12/29 05:24:23;;;;;;;26.30;18.77;;;256.00;1894.40;;;;;;5053217;28;20049;-74
2020/12/29 05:26:57;;;;;;;123.35;65.15;;;256.00;1894.40;;;;;;5053601;28;20450;-75
2020/12/29 05:29:24;;;;;;;170.52;94.70;;;256.00;1894.40;;;;;;5053152;28;20036;-74
2020/12/29 05:31:51;;;;;;;74.95;49.17;;;231.30;1894.40;;;;;;5052739;28;20032;-73
2020/12/29 05:34:22;;;;;;;52.20;33.50;;;231.20;1920.00;;;;;;5053347;28;20018;-74
2020/12/29 05:36:48;;;;;;;39.40;26.77;;;231.20;1920.00;;;;;;5052905;28;20101;-75
2020/12/29 05:39:15;;;;;;;75.25;45.88;;;231.30;1920.00;;;;;;5053194;28;20017;-75
2020/12/29 05:41:46;;;;;;;57.78;38.67;;;231.20;1920.00;;;;;;5053066;28;20049;-75
2020/12/29 05:44:24;;;;;;;57.65;38.42;;;231.20;1920.00;;;;;;5052831;28;20064;-74
2020/12/29 05:46:50;;;;;;;53.92;36.85;;;231.20;1920.00;;;;;;5052947;28;20044;-75
2020/12/29 05:49:19;;;;;;;56.85;35.35;;;231.10;1920.00;;;;;;5053012;28;20466;-73
2020/12/29 05:51:48;;;;;;;51.88;35.70;;;231.10;1920.00;;;;;;5052961;28;20025;-75
2020/12/29 05:54:16;;;;;;;56.70;39.97;;;231.10;1920.00;;;;;;5053341;28;20466;-74
2020/12/29 05:56:42;;;;;;;58.90;38.65;;;231.10;1920.00;;;;;;5052893;28;20025;-74
2020/12/29 05:59:10;;;;;;;59.97;43.53;;;231.00;1945.60;;;;;;5052958;28;20385;-75
2020/12/29 06:01:50;;;;;;;65.50;45.65;;;231.00;1920.00;;;;;;5052914;28;20017;-75
2020/12/29 06:04:16;;;;;;;66.82;45.75;;;231.00;1920.00;;;;;;5052905;28;20056;-74
2020/12/29 06:06:44;;;;;;;69.30;46.42;;;231.00;1920.00;;;;;;5052383;28;20025;-74
2020/12/29 06:09:14;;;;;;;66.07;44.40;;;231.00;1920.00;;;;;;5052470;28;20474;-74
2020/12/29 06:11:40;;;;;;;64.32;44.40;;;231.00;1920.00;;;;;;5052398;28;20050;-73
2020/12/29 06:14:10;;;;;;;64.22;46.55;;;230.90;1920.00;;;;;;5052177;28;20025;-76
2020/12/29 06:16:39;;;;;;;77.85;55.90;;;230.90;1920.00;;;;;;5052852;28;20056;-73
2020/12/29 06:19:23;;;;;;;89.00;57.33;;;230.80;1920.00;;;;;;5052739;28;20111;-75
2020/12/29 06:22:00;;;;;;;93.22;61.17;;;230.70;1945.60;;;;;;5052740;28;20407;-74
2020/12/29 06:24:29;;;;;;;92.35;62.72;;;230.70;1920.00;;;;;;5052392;28;20077;-73
2020/12/29 06:26:59;;;;;;;95.03;64.25;;;230.70;1945.60;;;;;;5052719;28;20104;-75
2020/12/29 06:29:31;;;;;;;107.82;69.40;;;230.60;1945.60;;;;;;5052621;28;20537;-77
2020/12/29 06:31:57;;;;;;;172.77;113.93;;;230.60;1920.00;;;;;;5052708;28;20017;-76
2020/12/29 06:34:23;;;;;;;154.20;107.95;;;230.60;1920.00;;;;;;5052579;28;20123;-74
2020/12/29 06:36:53;;;;;;;133.70;98.95;;;230.60;1945.60;;;;;;5052538;28;20068;-73
2020/12/29 06:39:21;;;;;;;110.13;76.55;;;230.60;1945.60;;;;;;5052597;28;20025;-74
2020/12/29 06:41:49;;;;;;;123.20;81.95;;;230.60;1945.60;;;;;;5052392;28;20021;-75
2020/12/29 06:44:15;;;;;;;114.80;78.20;;;230.50;1945.60;;;;;;5055899;28;20036;-74
2020/12/29 06:46:40;;;;;;;88.28;57.70;;;230.50;1945.60;;;;;;5056121;28;20024;-74
2020/12/29 06:49:20;;;;;;;77.13;55.30;;;230.60;1945.60;;;;;;5055947;28;20021;-74
2020/12/29 06:51:47;;;;;;;78.07;59.83;;;230.50;1945.60;;;;;;5056049;28;20036;-73
2020/12/29 06:54:21;;;;;;;86.18;60.60;;;230.40;1945.60;;;;;;5056036;28;20021;-72
2020/12/29 06:57:00;;;;;;;77.95;57.88;;;205.70;1945.60;;;;;;5055889;28;20092;-73
2020/12/29 06:59:37;;;;;;;85.95;64.07;;;230.40;1945.60;;;;;;5055811;28;20021;-74
2020/12/29 07:02:03;;;;;;;121.95;81.05;;;230.40;1945.60;;;;;;5055932;28;20025;-75
2020/12/29 07:04:29;;;;;;;96.13;64.97;;;230.40;1945.60;;;;;;5055923;28;20044;-75
2020/12/29 07:06:54;;;;;;;93.47;66.28;;;205.60;1945.60;;;;;;5055735;28;20385;-74
2020/12/29 07:09:23;;;;;;;114.53;80.63;;;205.70;1945.60;;;;;;5055618;28;20025;-75
2020/12/29 07:12:05;;;;;;;116.55;82.57;;;205.70;1945.60;;;;;;5055777;28;20017;-73
2020/12/29 07:14:32;;;;;;;125.82;87.72;;;230.50;1945.60;;;;;;5055644;28;20028;-74
2020/12/29 07:16:59;;;;;;;134.27;93.75;;;230.40;1945.60;;;;;;5055847;28;20044;-75
2020/12/29 07:19:27;;;;;;;143.45;103.63;;;230.40;1945.60;;;;;;5055751;28;20028;-74
2020/12/29 07:21:54;;;;;;;136.77;98.55;;;230.40;1945.60;;;;;;5055582;28;20021;-74
2020/12/29 07:24:19;;;;;;;135.88;95.22;;;230.50;1945.60;;;;;;5055032;28;20045;-76
2020/12/29 07:26:45;;;;;;;81.60;55.88;;;205.70;1945.60;;;;;;5055470;28;20090;-75
2020/12/29 07:29:11;;;;;;;73.40;49.20;;;230.40;1945.60;;;;;;5055445;28;20041;-75
2020/12/29 07:31:43;;;;;;;75.95;51.88;;;230.50;1945.60;;;;;;5055391;28;20507;-75
2020/12/29 07:34:11;;;;;;;74.57;55.22;;;230.50;1945.60;;;;;;5055355;28;20028;-75
2020/12/29 07:36:46;;;;;;;68.18;52.25;;;230.60;1920.00;;;;;;5054701;28;20029;-75
2020/12/29 07:39:13;;;;;;;68.07;47.55;;;230.50;1920.00;;;;;;5055164;28;20017;-73
2020/12/29 07:41:39;;;;;;;63.45;45.30;;;230.60;1920.00;;;;;;5054887;28;20016;-76
2020/12/29 07:44:06;;;;;;;65.90;47.80;;;230.60;1920.00;;;;;;5055249;28;20363;-76
2020/12/29 07:46:32;;;;;;;156.52;105.32;;;230.60;1920.00;;;;;;5053994;28;20440;-74
2020/12/29 07:48:59;;;;;;;158.60;96.00;;;230.60;1920.00;;;;;;5055111;28;20028;-74
2020/12/29 07:51:25;;;;;;;233.40;134.35;;;230.60;1920.00;;;;;;5054899;28;20021;-76
2020/12/29 07:53:51;;;;;;;117.38;80.13;;;230.60;1920.00;;;;;;5054752;28;20647;-75
2020/12/29 07:56:18;;;;;;;121.53;89.88;;;230.60;1920.00;;;;;;5054887;28;20132;-74
2020/12/29 07:58:44;;;;;;;116.07;88.28;;;230.60;1945.60;;;;;;5054802;28;20060;-74
2020/12/29 08:01:11;;;;;;;108.20;82.00;;;230.60;1945.60;;;;;;5054819;28;20442;-75
2020/12/29 08:03:38;;;;;;;113.00;88.90;;;230.60;1945.60;;;;;;5054700;28;20501;-75
2020/12/29 08:06:12;;;;;;;126.72;93.45;;;230.70;1945.60;;;;;;5054520;28;20068;-74
2020/12/29 08:08:40;;;;;;;135.95;98.95;;;230.80;1945.60;;;;;;5054575;28;20131;-74
2020/12/29 08:11:07;;;;;;;138.95;100.47;;;230.90;1945.60;;;;;;5054569;28;20032;-74
2020/12/29 08:13:33;;;;;;;128.98;92.18;;;231.00;1945.60;;;;;;5054672;28;20466;-74
2020/12/29 08:15:59;;;;;;;171.18;127.88;;;231.00;1920.00;;;;;;5054409;28;20055;-74
2020/12/29 08:18:24;;;;;;;114.80;89.05;;;231.10;1945.60;;;;;;5054495;28;20492;-75
2020/12/29 08:20:56;;;;;;;106.95;80.50;;;231.30;1920.00;;;;;;5054384;28;20021;-75
2020/12/29 08:23:24;;;;;;;110.55;82.82;;;256.00;1894.40;;;;;;5054100;28;20494;-74
2020/12/29 08:25:58;;;;;;;103.32;76.68;;;256.10;1894.40;;;;;;5054465;28;20029;-74
2020/12/29 08:28:25;;;;;;;;;;;256.30;1868.80;;;;;;5054691;28;20024;-73
2020/12/29 08:30:51;;;;;;;76.45;53.60;;;256.50;1868.80;;;;;;5054127;28;19905;-74
2020/12/29 08:33:22;;;;;;;91.25;67.18;;;256.60;1868.80;;;;;;5052851;28;20025;-75
2020/12/29 08:35:54;;;;;;;58.83;45.50;;;256.80;1843.20;;;;;;5050189;28;20019;-74
2020/12/29 08:38:42;;;;;;;58.03;43.20;;;256.90;1843.20;;;;;;5053014;28;20100;-75
2020/12/29 08:41:07;;;;;;;66.95;45.75;;;281.80;1843.20;;;;;;5052975;28;20040;-74
2020/12/29 08:43:42;;;;;;;47.33;37.88;;;281.70;1843.20;;;;;;5053958;28;20037;-75
2020/12/29 08:46:09;;;;;;;53.33;39.80;;;281.60;1817.60;;;;;;5053879;28;20025;-73
2020/12/29 08:48:35;;;;;;;58.15;37.10;;;281.60;1843.20;;;;;;5053731;28;20501;-73
2020/12/29 08:51:18;;;;;;;49.50;39.88;;;281.60;1843.20;;;;;;5054268;28;20025;-73
2020/12/29 08:53:44;;;;;;;48.13;36.05;;;281.70;1843.20;;;;;;5053854;28;20065;-73
2020/12/29 08:56:26;;;;;;;53.00;37.78;;;281.90;1817.60;;;;;;5053900;28;20025;-72
2020/12/29 08:58:53;;;;;;;43.97;33.40;;;282.00;1792.00;;;;;;5053742;28;20029;-73
2020/12/29 09:01:36;;;;;;;44.92;32.95;;;282.10;1792.00;;;;;;5053581;28;20036;-74
2020/12/29 09:04:23;;;;;;;35.25;27.48;;;282.20;1792.00;;;;;;5053557;28;20029;-74
2020/12/29 09:06:58;;;;;;;45.45;33.17;;;282.30;1766.40;;;;;;5053051;28;20028;-74
2020/12/29 09:09:24;;;;;;;54.25;40.53;;;282.50;1766.40;;;;;;5053549;28;20025;-74
2020/12/29 09:12:08;;;;;;;54.05;39.90;;;307.30;1766.40;;;;;;5053356;28;20386;-75
2020/12/29 09:14:35;;;;;;;55.03;42.78;;;307.50;1715.20;;;;;;5053357;28;20075;-75
2020/12/29 09:17:04;;;;;;;60.65;45.92;;;307.70;1715.20;;;;;;5053363;28;20032;-73
2020/12/29 09:19:31;;;;;;;54.60;42.28;;;307.50;1740.80;;;;;;5053629;28;20051;-74
2020/12/29 09:22:10;;;;;;;63.70;46.92;;;307.40;1740.80;;;;;;5053429;28;20123;-74
2020/12/29 09:24:37;;;;;;;69.97;55.20;;;307.40;1740.80;;;;;;5053113;28;20072;-75
2020/12/29 09:27:04;;;;;;;75.35;58.47;;;307.30;1766.40;;;;;;5052000;28;20028;-74
2020/12/29 09:29:34;;;;;;;125.13;92.13;;;307.70;1766.40;;;;;;5052225;28;20409;-74
2020/12/29 09:32:01;;;;;;;76.90;62.47;;;308.00;1740.80;;;;;;5053338;28;20067;-75
2020/12/29 09:34:27;;;;;;;74.40;53.95;;;332.80;1715.20;;;;;;5053161;28;20544;-75
2020/12/29 09:36:52;;;;;;;92.13;73.53;;;333.10;1689.60;;;;;;5052851;28;20047;-76
2020/12/29 09:39:18;;;;;;;96.07;76.82;;;333.20;1715.20;;;;;;5053147;28;20025;-76
2020/12/29 09:41:44;;;;;;;86.25;69.35;;;333.20;1689.60;;;;;;5053181;28;20398;-76
2020/12/29 09:44:10;;;;;;;93.30;72.45;;;333.40;1664.00;;;;;;5052669;28;20401;-75
2020/12/29 09:46:39;;;;;;;96.95;76.30;;;333.50;1638.40;;;;;;5052956;28;20021;-77
2020/12/29 09:49:05;;;;;;;89.63;69.18;;;333.70;1638.40;;;;;;5053133;28;20028;-76
2020/12/29 09:51:32;;;;;;;93.25;72.15;;;358.40;1638.40;;;;;;5053106;28;20021;-74
2020/12/29 09:53:58;;;;;;;87.68;68.30;;;358.60;1612.80;;;;;;5052916;28;20103;-76
2020/12/29 09:56:24;;;;;;;96.50;74.55;;;358.70;1612.80;;;;;;5053061;28;20017;-76
2020/12/29 09:58:50;;;;;;;93.40;71.47;;;358.50;1638.40;;;;;;5053020;28;20032;-75
2020/12/29 10:01:16;;;;;;;96.82;76.68;;;333.50;1664.00;;;;;;5051863;28;20056;-75
2020/12/29 10:03:42;;;;;;;102.57;80.47;;;333.40;1664.00;;;;;;5052878;28;20064;-75
2020/12/29 10:06:08;;;;;;;120.40;91.45;;;333.30;1689.60;;;;;;5052989;28;20418;-75
2020/12/29 10:08:34;;;;;;;117.72;95.13;;;333.10;1715.20;;;;;;5052727;28;20075;-76
2020/12/29 10:11:00;;;;;;;96.22;76.75;;;333.10;1740.80;;;;;;5053017;28;20025;-75
2020/12/29 10:13:25;;;;;;;115.28;87.53;;;332.90;1740.80;;;;;;5052766;28;20028;-73
2020/12/29 10:15:51;;;;;;;144.65;125.25;;;332.80;1766.40;;;;;;5052960;28;20083;-75
2020/12/29 10:18:17;;;;;;;124.63;97.80;;;308.10;1715.20;;;;;;5056782;28;20386;-76
2020/12/29 10:20:43;;;;;;;82.93;56.95;;;308.10;1740.80;;;;;;5056714;28;20044;-73
2020/12/29 10:23:09;;;;;;;76.07;59.88;;;308.10;1664.00;;;;;;5056290;28;20053;-75
2020/12/29 10:25:34;;;;;;;82.03;59.33;;;308.10;1689.60;;;;;;5056293;28;20068;-74
2020/12/29 10:28:00;;;;;;;142.13;105.65;;;332.80;1715.20;;;;;;5056452;28;20025;-76
2020/12/29 10:30:26;;;;;;;141.65;112.95;;;332.90;1740.80;;;;;;5056678;28;20029;-75
2020/12/29 10:32:52;;;;;;;145.68;114.35;;;332.80;1792.00;;;;;;5056665;28;20025;-73
2020/12/29 10:35:17;;;;;;;136.25;106.78;;;332.80;1792.00;;;;;;5056401;28;20033;-74
2020/12/29 10:37:43;;;;;;;130.40;105.85;;;308.10;1766.40;;;;;;5056667;28;20054;-75
2020/12/29 10:40:09;;;;;;;115.78;93.32;;;332.80;1792.00;;;;;;5056226;28;20100;-74
2020/12/29 10:42:35;;;;;;;111.53;87.15;;;308.00;1766.40;;;;;;5056478;28;20386;-76
2020/12/29 10:45:01;;;;;;;106.60;86.45;;;308.10;1766.40;;;;;;5056114;28;20029;-72
2020/12/29 10:47:27;;;;;;;108.38;91.28;;;307.90;1792.00;;;;;;5056382;28;20032;-74
2020/12/29 10:49:52;;;;;;;108.45;90.07;;;307.90;1766.40;;;;;;5056196;28;20025;-74
2020/12/29 10:52:18;;;;;;;93.43;75.80;;;307.90;1766.40;;;;;;5056107;28;20359;-72
2020/12/29 10:54:44;;;;;;;103.95;76.60;;;307.90;1766.40;;;;;;5055813;28;20075;-73
2020/12/29 10:57:10;;;;;;;86.05;66.70;;;308.10;1740.80;;;;;;5056035;28;20031;-73
2020/12/29 10:59:35;;;;;;;86.78;67.15;;;308.00;1766.40;;;;;;5056166;28;20070;-74
2020/12/29 11:02:02;;;;;;;85.28;66.18;;;308.00;1766.40;;;;;;5055846;28;20028;-74
2020/12/29 11:04:28;;;;;;;100.18;76.00;;;332.80;1766.40;;;;;;5055440;28;20025;-74
2020/12/29 11:06:54;;;;;;;80.65;61.70;;;332.80;1766.40;;;;;;5055914;28;20031;-74
2020/12/29 11:09:20;;;;;;;93.10;52.28;;;332.90;1740.80;;;;;;5055636;28;20025;-73
2020/12/29 11:11:48;;;;;;;77.03;53.65;;;333.30;1689.60;;;;;;5055757;28;20115;-73
2020/12/29 11:14:13;;;;;;;65.60;50.03;;;333.50;1689.60;;;;;;5055809;28;20048;-73
2020/12/29 11:16:39;;;;;;;60.17;44.85;;;333.50;1689.60;;;;;;5055653;28;20025;-74
2020/12/29 11:19:05;;;;;;;49.10;35.28;;;333.70;1664.00;;;;;;5055736;28;20379;-74
2020/12/29 11:21:30;;;;;;;57.53;42.60;;;358.40;1638.40;;;;;;5055585;28;20079;-74
2020/12/29 11:23:56;;;;;;;72.60;58.58;;;358.50;1638.40;;;;;;5054987;28;20060;-73
2020/12/29 11:26:22;;;;;;;53.40;43.58;;;358.60;1612.80;;;;;;5055478;28;20033;-75
2020/12/29 11:28:49;;;;;;;69.13;53.35;;;358.80;1612.80;;;;;;5054926;28;20489;-73
2020/12/29 11:31:16;;;;;;;185.23;130.38;;;358.90;1587.20;;;;;;5055297;28;20023;-74
2020/12/29 11:33:42;;;;;;;158.57;107.97;;;359.00;1536.00;;;;;;5055381;28;20120;-76
2020/12/29 11:36:08;;;;;;;105.15;69.03;;;359.20;1484.80;;;;;;5055154;28;20095;-74
2020/12/29 11:38:35;;;;;;;83.70;59.85;;;359.20;1484.80;;;;;;5055300;28;20021;-75
2020/12/29 11:41:00;;;;;;;63.33;48.50;;;359.20;1510.40;;;;;;5055019;28;20040;-73
2020/12/29 11:43:26;;;;;;;66.85;49.35;;;359.20;1510.40;;;;;;5054747;28;20382;-74
2020/12/29 11:45:52;;;;;;;60.03;45.53;;;359.20;1561.60;;;;;;5055004;28;20032;-74
2020/12/29 11:48:18;;;;;;;74.30;57.03;;;359.20;1587.20;;;;;;5054694;28;20052;-74
2020/12/29 11:50:43;;;;;;;61.67;49.45;;;359.20;1561.60;;;;;;5053509;28;20070;-73
2020/12/29 11:53:09;;;;;;;62.72;52.13;;;358.90;1536.00;;;;;;5053553;28;20083;-74
2020/12/29 11:55:35;;;;;;;59.53;47.33;;;358.90;1536.00;;;;;;5053030;28;20032;-73
2020/12/29 11:58:01;;;;;;;64.85;52.03;;;358.90;1536.00;;;;;;5053935;28;20096;-75
2020/12/29 12:00:27;;;;;;;65.15;48.55;;;358.70;1561.60;;;;;;5054974;28;20060;-74
2020/12/29 12:02:52;;;;;;;87.25;65.35;;;358.60;1612.80;;;;;;5054688;28;20078;-74
2020/12/29 12:05:18;;;;;;;78.60;64.03;;;358.50;1612.80;;;;;;5054494;28;20029;-74